Terminal Aerodrome Forecast
Issued by NWS Sterling, VA

Current Version | Previous Version | Text Only | Print | Product List | Glossary Off
Versions: 1 2 3 4 5 6 7 8 9 10 11 12 13 14 15 16 17 18 19 20 21 22 23

079
FTUS41 KLWX 051121
TAFDCA
TAF
KDCA 051121Z 0512/0612 33013KT 6SM -SN BR OVC035
     FM051300 33013G24KT P6SM OVC035
     FM051600 32015G24KT P6SM SCT050
     FM052300 31006KT P6SM SKC=

USA.gov is the U.S. government's official web portal to all federal, state and local government web resources and services.